sensor_id;sensor_type;location;lat;lon;timestamp;P1;durP1;ratioP1;P2;durP2;ratioP2
8407;SDS011;4241;48.452;9.216;2022-09-02T00:02:11;466.23;;;176.70;;
8407;SDS011;4241;48.452;9.216;2022-09-02T00:04:40;466.57;;;179.97;;
8407;SDS011;4241;48.452;9.216;2022-09-02T00:07:09;468.33;;;182.63;;
8407;SDS011;4241;48.452;9.216;2022-09-02T00:09:35;466.50;;;177.47;;
8407;SDS011;4241;48.452;9.216;2022-09-02T00:12:04;465.50;;;176.87;;
8407;SDS011;4241;48.452;9.216;2022-09-02T00:14:33;465.83;;;179.83;;
8407;SDS011;4241;48.452;9.216;2022-09-02T00:17:01;465.00;;;179.57;;
8407;SDS011;4241;48.452;9.216;2022-09-02T00:19:29;465.47;;;177.30;;
8407;SDS011;4241;48.452;9.216;2022-09-02T00:21:59;466.77;;;178.07;;
8407;SDS011;4241;48.452;9.216;2022-09-02T00:24:28;466.07;;;178.20;;
8407;SDS011;4241;48.452;9.216;2022-09-02T00:26:56;465.23;;;177.33;;
8407;SDS011;4241;48.452;9.216;2022-09-02T00:29:23;465.87;;;177.97;;
8407;SDS011;4241;48.452;9.216;2022-09-02T00:31:50;465.77;;;177.10;;
8407;SDS011;4241;48.452;9.216;2022-09-02T00:34:17;464.30;;;175.53;;
8407;SDS011;4241;48.452;9.216;2022-09-02T00:36:45;466.07;;;175.70;;
8407;SDS011;4241;48.452;9.216;2022-09-02T00:39:12;463.63;;;173.83;;
8407;SDS011;4241;48.452;9.216;2022-09-02T00:41:40;463.90;;;174.53;;
8407;SDS011;4241;48.452;9.216;2022-09-02T00:44:09;463.67;;;173.00;;
8407;SDS011;4241;48.452;9.216;2022-09-02T00:46:37;464.37;;;174.33;;
8407;SDS011;4241;48.452;9.216;2022-09-02T00:49:07;463.93;;;172.83;;
8407;SDS011;4241;48.452;9.216;2022-09-02T00:51:38;464.23;;;173.53;;
8407;SDS011;4241;48.452;9.216;2022-09-02T00:54:08;464.97;;;174.77;;
8407;SDS011;4241;48.452;9.216;2022-09-02T00:56:38;463.53;;;173.70;;
8407;SDS011;4241;48.452;9.216;2022-09-02T00:59:08;463.93;;;171.77;;
8407;SDS011;4241;48.452;9.216;2022-09-02T01:01:38;465.43;;;174.70;;
8407;SDS011;4241;48.452;9.216;2022-09-02T01:04:05;464.20;;;174.40;;
8407;SDS011;4241;48.452;9.216;2022-09-02T01:06:32;464.20;;;173.03;;
8407;SDS011;4241;48.452;9.216;2022-09-02T01:09:01;464.60;;;173.50;;
8407;SDS011;4241;48.452;9.216;2022-09-02T01:11:35;464.97;;;171.40;;
8407;SDS011;4241;48.452;9.216;2022-09-02T01:14:05;463.13;;;173.30;;
8407;SDS011;4241;48.452;9.216;2022-09-02T01:16:35;462.37;;;172.07;;
8407;SDS011;4241;48.452;9.216;2022-09-02T01:19:07;462.07;;;170.33;;
8407;SDS011;4241;48.452;9.216;2022-09-02T01:21:38;462.73;;;172.57;;
8407;SDS011;4241;48.452;9.216;2022-09-02T01:24:08;465.87;;;174.20;;
8407;SDS011;4241;48.452;9.216;2022-09-02T01:26:35;464.63;;;174.17;;
8407;SDS011;4241;48.452;9.216;2022-09-02T01:29:02;462.03;;;171.53;;
8407;SDS011;4241;48.452;9.216;2022-09-02T01:31:29;463.13;;;173.70;;
8407;SDS011;4241;48.452;9.216;2022-09-02T01:33:56;462.00;;;172.00;;
8407;SDS011;4241;48.452;9.216;2022-09-02T01:36:23;462.00;;;170.50;;
8407;SDS011;4241;48.452;9.216;2022-09-02T01:38:50;462.63;;;172.10;;
8407;SDS011;4241;48.452;9.216;2022-09-02T01:41:21;460.57;;;171.27;;
8407;SDS011;4241;48.452;9.216;2022-09-02T01:43:48;461.00;;;170.13;;
8407;SDS011;4241;48.452;9.216;2022-09-02T01:46:15;461.23;;;171.27;;
8407;SDS011;4241;48.452;9.216;2022-09-02T01:48:43;460.40;;;167.37;;
8407;SDS011;4241;48.452;9.216;2022-09-02T01:51:14;462.27;;;171.10;;
8407;SDS011;4241;48.452;9.216;2022-09-02T01:53:42;461.03;;;170.63;;
8407;SDS011;4241;48.452;9.216;2022-09-02T01:56:09;460.13;;;169.90;;
8407;SDS011;4241;48.452;9.216;2022-09-02T01:58:37;463.10;;;172.97;;
8407;SDS011;4241;48.452;9.216;2022-09-02T02:01:05;461.63;;;170.87;;
8407;SDS011;4241;48.452;9.216;2022-09-02T02:03:32;462.33;;;172.03;;
8407;SDS011;4241;48.452;9.216;2022-09-02T02:06:00;459.57;;;166.90;;
8407;SDS011;4241;48.452;9.216;2022-09-02T02:08:27;467.23;;;175.90;;
8407;SDS011;4241;48.452;9.216;2022-09-02T02:10:54;460.83;;;168.63;;
8407;SDS011;4241;48.452;9.216;2022-09-02T02:13:21;460.73;;;169.33;;
8407;SDS011;4241;48.452;9.216;2022-09-02T02:15:50;461.43;;;169.17;;
8407;SDS011;4241;48.452;9.216;2022-09-02T02:18:17;464.83;;;173.57;;
8407;SDS011;4241;48.452;9.216;2022-09-02T02:20:44;461.13;;;168.23;;
8407;SDS011;4241;48.452;9.216;2022-09-02T02:23:11;460.83;;;167.23;;
8407;SDS011;4241;48.452;9.216;2022-09-02T02:25:38;460.73;;;167.93;;
8407;SDS011;4241;48.452;9.216;2022-09-02T02:28:05;461.10;;;170.27;;
8407;SDS011;4241;48.452;9.216;2022-09-02T02:30:32;461.27;;;168.20;;
8407;SDS011;4241;48.452;9.216;2022-09-02T02:33:01;462.27;;;166.93;;
8407;SDS011;4241;48.452;9.216;2022-09-02T02:35:27;460.93;;;164.90;;
8407;SDS011;4241;48.452;9.216;2022-09-02T02:37:54;460.40;;;164.27;;
8407;SDS011;4241;48.452;9.216;2022-09-02T02:40:22;461.20;;;166.87;;
8407;SDS011;4241;48.452;9.216;2022-09-02T02:42:50;460.10;;;167.33;;
8407;SDS011;4241;48.452;9.216;2022-09-02T02:45:18;458.77;;;165.37;;
8407;SDS011;4241;48.452;9.216;2022-09-02T02:47:46;458.70;;;162.53;;
8407;SDS011;4241;48.452;9.216;2022-09-02T02:50:16;457.70;;;166.87;;
8407;SDS011;4241;48.452;9.216;2022-09-02T02:52:45;451.97;;;163.37;;
8407;SDS011;4241;48.452;9.216;2022-09-02T02:55:13;456.87;;;165.40;;
8407;SDS011;4241;48.452;9.216;2022-09-02T02:57:41;459.67;;;166.60;;
8407;SDS011;4241;48.452;9.216;2022-09-02T03:00:09;458.47;;;163.87;;
8407;SDS011;4241;48.452;9.216;2022-09-02T03:02:38;459.07;;;165.63;;
8407;SDS011;4241;48.452;9.216;2022-09-02T03:05:06;456.40;;;164.53;;
8407;SDS011;4241;48.452;9.216;2022-09-02T03:07:35;481.63;;;181.90;;
8407;SDS011;4241;48.452;9.216;2022-09-02T03:10:02;456.80;;;167.37;;
8407;SDS011;4241;48.452;9.216;2022-09-02T03:12:32;457.83;;;168.13;;
8407;SDS011;4241;48.452;9.216;2022-09-02T03:14:59;459.33;;;168.17;;
8407;SDS011;4241;48.452;9.216;2022-09-02T03:17:26;460.73;;;171.10;;
8407;SDS011;4241;48.452;9.216;2022-09-02T03:19:53;460.30;;;167.10;;
8407;SDS011;4241;48.452;9.216;2022-09-02T03:22:22;456.97;;;165.20;;
8407;SDS011;4241;48.452;9.216;2022-09-02T03:24:51;457.57;;;166.53;;
8407;SDS011;4241;48.452;9.216;2022-09-02T03:27:17;459.33;;;166.57;;
8407;SDS011;4241;48.452;9.216;2022-09-02T03:29:44;460.20;;;167.33;;
8407;SDS011;4241;48.452;9.216;2022-09-02T03:32:11;458.50;;;167.50;;
8407;SDS011;4241;48.452;9.216;2022-09-02T03:34:38;458.60;;;166.37;;
8407;SDS011;4241;48.452;9.216;2022-09-02T03:37:05;459.73;;;166.97;;
8407;SDS011;4241;48.452;9.216;2022-09-02T03:39:33;458.33;;;168.23;;
8407;SDS011;4241;48.452;9.216;2022-09-02T03:42:02;459.30;;;170.30;;
8407;SDS011;4241;48.452;9.216;2022-09-02T03:44:29;458.13;;;167.90;;
8407;SDS011;4241;48.452;9.216;2022-09-02T03:46:58;460.27;;;168.77;;
8407;SDS011;4241;48.452;9.216;2022-09-02T03:49:25;458.80;;;167.40;;
8407;SDS011;4241;48.452;9.216;2022-09-02T03:51:52;458.57;;;165.17;;
8407;SDS011;4241;48.452;9.216;2022-09-02T03:54:19;455.00;;;168.20;;
8407;SDS011;4241;48.452;9.216;2022-09-02T03:56:46;456.53;;;165.33;;
8407;SDS011;4241;48.452;9.216;2022-09-02T03:59:14;457.63;;;166.67;;
8407;SDS011;4241;48.452;9.216;2022-09-02T04:01:41;459.40;;;167.77;;
8407;SDS011;4241;48.452;9.216;2022-09-02T04:04:08;458.63;;;166.77;;
8407;SDS011;4241;48.452;9.216;2022-09-02T04:06:35;458.97;;;166.17;;
8407;SDS011;4241;48.452;9.216;2022-09-02T04:09:03;458.53;;;166.10;;
8407;SDS011;4241;48.452;9.216;2022-09-02T04:11:30;458.37;;;164.47;;
8407;SDS011;4241;48.452;9.216;2022-09-02T04:13:57;458.17;;;164.27;;
8407;SDS011;4241;48.452;9.216;2022-09-02T04:23:09;456.07;;;164.63;;
8407;SDS011;4241;48.452;9.216;2022-09-02T04:25:39;459.43;;;165.30;;
8407;SDS011;4241;48.452;9.216;2022-09-02T04:28:07;459.97;;;166.97;;
8407;SDS011;4241;48.452;9.216;2022-09-02T04:30:34;459.20;;;164.17;;
8407;SDS011;4241;48.452;9.216;2022-09-02T04:33:03;460.60;;;165.00;;
8407;SDS011;4241;48.452;9.216;2022-09-02T04:35:30;460.37;;;165.70;;
8407;SDS011;4241;48.452;9.216;2022-09-02T04:37:59;458.70;;;161.37;;
8407;SDS011;4241;48.452;9.216;2022-09-02T04:40:27;459.07;;;162.37;;
8407;SDS011;4241;48.452;9.216;2022-09-02T04:42:55;457.77;;;163.47;;
8407;SDS011;4241;48.452;9.216;2022-09-02T04:45:22;462.93;;;165.87;;
8407;SDS011;4241;48.452;9.216;2022-09-02T04:47:49;441.33;;;167.50;;
8407;SDS011;4241;48.452;9.216;2022-09-02T04:50:16;435.10;;;166.53;;
8407;SDS011;4241;48.452;9.216;2022-09-02T04:52:43;432.17;;;163.87;;
8407;SDS011;4241;48.452;9.216;2022-09-02T04:55:09;431.50;;;164.67;;
8407;SDS011;4241;48.452;9.216;2022-09-02T04:57:38;428.63;;;164.50;;
8407;SDS011;4241;48.452;9.216;2022-09-02T05:00:05;428.80;;;161.03;;
8407;SDS011;4241;48.452;9.216;2022-09-02T05:02:34;426.73;;;162.27;;
8407;SDS011;4241;48.452;9.216;2022-09-02T05:05:01;429.10;;;165.10;;
8407;SDS011;4241;48.452;9.216;2022-09-02T05:07:27;438.20;;;171.70;;
8407;SDS011;4241;48.452;9.216;2022-09-02T05:09:55;431.03;;;165.20;;
8407;SDS011;4241;48.452;9.216;2022-09-02T05:12:23;429.50;;;164.27;;
8407;SDS011;4241;48.452;9.216;2022-09-02T05:14:53;427.70;;;161.67;;
8407;SDS011;4241;48.452;9.216;2022-09-02T05:17:21;428.00;;;163.07;;
8407;SDS011;4241;48.452;9.216;2022-09-02T05:19:48;427.27;;;162.27;;
8407;SDS011;4241;48.452;9.216;2022-09-02T05:22:15;426.07;;;162.93;;
8407;SDS011;4241;48.452;9.216;2022-09-02T05:24:41;425.80;;;162.00;;
8407;SDS011;4241;48.452;9.216;2022-09-02T05:27:09;426.57;;;163.33;;
8407;SDS011;4241;48.452;9.216;2022-09-02T05:29:36;425.73;;;161.23;;
8407;SDS011;4241;48.452;9.216;2022-09-02T05:32:04;425.27;;;160.83;;
8407;SDS011;4241;48.452;9.216;2022-09-02T05:34:32;426.80;;;161.30;;
8407;SDS011;4241;48.452;9.216;2022-09-02T05:36:59;427.00;;;163.70;;
8407;SDS011;4241;48.452;9.216;2022-09-02T05:39:27;426.80;;;163.57;;
8407;SDS011;4241;48.452;9.216;2022-09-02T05:41:54;426.93;;;164.00;;
8407;SDS011;4241;48.452;9.216;2022-09-02T05:44:21;426.90;;;163.40;;
8407;SDS011;4241;48.452;9.216;2022-09-02T05:46:48;425.13;;;160.30;;
8407;SDS011;4241;48.452;9.216;2022-09-02T05:49:16;425.60;;;163.60;;
8407;SDS011;4241;48.452;9.216;2022-09-02T05:51:46;424.63;;;164.93;;
8407;SDS011;4241;48.452;9.216;2022-09-02T05:54:15;424.67;;;163.20;;
8407;SDS011;4241;48.452;9.216;2022-09-02T05:56:44;419.90;;;160.50;;
8407;SDS011;4241;48.452;9.216;2022-09-02T05:59:13;420.83;;;161.97;;
8407;SDS011;4241;48.452;9.216;2022-09-02T06:01:41;426.83;;;167.70;;
8407;SDS011;4241;48.452;9.216;2022-09-02T06:04:09;422.17;;;163.07;;
8407;SDS011;4241;48.452;9.216;2022-09-02T06:06:37;428.90;;;167.60;;
8407;SDS011;4241;48.452;9.216;2022-09-02T06:09:05;424.37;;;165.53;;
8407;SDS011;4241;48.452;9.216;2022-09-02T06:11:33;428.67;;;169.73;;
8407;SDS011;4241;48.452;9.216;2022-09-02T06:14:04;424.77;;;166.17;;
8407;SDS011;4241;48.452;9.216;2022-09-02T06:16:32;427.13;;;166.50;;
8407;SDS011;4241;48.452;9.216;2022-09-02T06:19:00;428.10;;;167.17;;
8407;SDS011;4241;48.452;9.216;2022-09-02T06:21:28;428.07;;;167.23;;
8407;SDS011;4241;48.452;9.216;2022-09-02T06:23:56;428.00;;;167.10;;
8407;SDS011;4241;48.452;9.216;2022-09-02T06:26:23;428.93;;;167.43;;
8407;SDS011;4241;48.452;9.216;2022-09-02T06:28:50;425.57;;;165.03;;
8407;SDS011;4241;48.452;9.216;2022-09-02T06:31:18;427.13;;;167.73;;
8407;SDS011;4241;48.452;9.216;2022-09-02T06:33:47;429.17;;;167.63;;
8407;SDS011;4241;48.452;9.216;2022-09-02T06:36:17;428.77;;;168.33;;
8407;SDS011;4241;48.452;9.216;2022-09-02T06:38:46;430.13;;;168.97;;
8407;SDS011;4241;48.452;9.216;2022-09-02T06:41:17;431.77;;;170.83;;
8407;SDS011;4241;48.452;9.216;2022-09-02T06:43:47;432.83;;;171.73;;
8407;SDS011;4241;48.452;9.216;2022-09-02T06:46:15;435.47;;;173.37;;
8407;SDS011;4241;48.452;9.216;2022-09-02T06:48:43;435.03;;;174.10;;
8407;SDS011;4241;48.452;9.216;2022-09-02T06:51:14;436.90;;;174.17;;
8407;SDS011;4241;48.452;9.216;2022-09-02T06:53:42;438.40;;;172.77;;
8407;SDS011;4241;48.452;9.216;2022-09-02T06:56:08;437.40;;;173.27;;
8407;SDS011;4241;48.452;9.216;2022-09-02T06:58:37;442.90;;;177.10;;
8407;SDS011;4241;48.452;9.216;2022-09-02T07:01:03;440.63;;;177.47;;
8407;SDS011;4241;48.452;9.216;2022-09-02T07:03:31;441.83;;;176.97;;
8407;SDS011;4241;48.452;9.216;2022-09-02T07:06:15;444.57;;;175.40;;
8407;SDS011;4241;48.452;9.216;2022-09-02T07:08:42;447.70;;;180.07;;
8407;SDS011;4241;48.452;9.216;2022-09-02T07:11:13;448.33;;;178.63;;
8407;SDS011;4241;48.452;9.216;2022-09-02T07:13:44;451.87;;;181.73;;
8407;SDS011;4241;48.452;9.216;2022-09-02T07:16:11;452.40;;;182.13;;
8407;SDS011;4241;48.452;9.216;2022-09-02T07:18:38;455.10;;;184.67;;
8407;SDS011;4241;48.452;9.216;2022-09-02T07:21:07;455.07;;;187.13;;
8407;SDS011;4241;48.452;9.216;2022-09-02T07:23:34;456.33;;;186.07;;
8407;SDS011;4241;48.452;9.216;2022-09-02T07:26:01;457.70;;;187.50;;
8407;SDS011;4241;48.452;9.216;2022-09-02T07:28:28;463.83;;;192.97;;
8407;SDS011;4241;48.452;9.216;2022-09-02T07:30:56;458.47;;;192.57;;
8407;SDS011;4241;48.452;9.216;2022-09-02T07:33:23;459.37;;;193.90;;
8407;SDS011;4241;48.452;9.216;2022-09-02T07:35:50;461.30;;;196.03;;
8407;SDS011;4241;48.452;9.216;2022-09-02T07:38:17;468.40;;;202.50;;
8407;SDS011;4241;48.452;9.216;2022-09-02T07:40:44;467.73;;;202.37;;
8407;SDS011;4241;48.452;9.216;2022-09-02T07:43:12;467.10;;;201.60;;
8407;SDS011;4241;48.452;9.216;2022-09-02T07:45:39;468.70;;;200.67;;
8407;SDS011;4241;48.452;9.216;2022-09-02T07:48:09;469.03;;;203.77;;
8407;SDS011;4241;48.452;9.216;2022-09-02T07:50:36;470.37;;;206.33;;
8407;SDS011;4241;48.452;9.216;2022-09-02T07:53:04;472.67;;;209.37;;
8407;SDS011;4241;48.452;9.216;2022-09-02T07:55:31;472.30;;;207.33;;
8407;SDS011;4241;48.452;9.216;2022-09-02T07:58:00;474.63;;;213.03;;
8407;SDS011;4241;48.452;9.216;2022-09-02T08:00:27;476.90;;;217.70;;
8407;SDS011;4241;48.452;9.216;2022-09-02T08:02:55;478.53;;;218.37;;
8407;SDS011;4241;48.452;9.216;2022-09-02T08:05:23;480.60;;;225.17;;
8407;SDS011;4241;48.452;9.216;2022-09-02T08:07:51;479.83;;;221.33;;
8407;SDS011;4241;48.452;9.216;2022-09-02T08:10:18;480.20;;;223.57;;
8407;SDS011;4241;48.452;9.216;2022-09-02T08:12:45;480.30;;;225.50;;
8407;SDS011;4241;48.452;9.216;2022-09-02T08:15:13;481.63;;;229.10;;
8407;SDS011;4241;48.452;9.216;2022-09-02T08:17:44;484.13;;;231.97;;
8407;SDS011;4241;48.452;9.216;2022-09-02T08:20:11;483.57;;;231.57;;
8407;SDS011;4241;48.452;9.216;2022-09-02T08:22:42;485.73;;;239.40;;
8407;SDS011;4241;48.452;9.216;2022-09-02T08:25:09;485.10;;;244.57;;
8407;SDS011;4241;48.452;9.216;2022-09-02T08:27:36;483.77;;;234.60;;
8407;SDS011;4241;48.452;9.216;2022-09-02T08:30:04;486.27;;;242.93;;
8407;SDS011;4241;48.452;9.216;2022-09-02T08:32:34;487.30;;;245.33;;
8407;SDS011;4241;48.452;9.216;2022-09-02T08:35:01;489.03;;;251.23;;
8407;SDS011;4241;48.452;9.216;2022-09-02T08:37:29;490.23;;;252.40;;
8407;SDS011;4241;48.452;9.216;2022-09-02T08:39:59;489.23;;;254.03;;
8407;SDS011;4241;48.452;9.216;2022-09-02T08:42:29;490.00;;;258.17;;
8407;SDS011;4241;48.452;9.216;2022-09-02T08:44:59;492.87;;;263.23;;
8407;SDS011;4241;48.452;9.216;2022-09-02T08:47:34;491.80;;;263.70;;
8407;SDS011;4241;48.452;9.216;2022-09-02T08:50:03;492.77;;;268.00;;
8407;SDS011;4241;48.452;9.216;2022-09-02T08:52:37;491.90;;;269.17;;
8407;SDS011;4241;48.452;9.216;2022-09-02T08:55:11;494.83;;;273.03;;
8407;SDS011;4241;48.452;9.216;2022-09-02T08:57:43;493.93;;;271.17;;
8407;SDS011;4241;48.452;9.216;2022-09-02T09:00:11;493.83;;;267.70;;
8407;SDS011;4241;48.452;9.216;2022-09-02T09:02:42;494.67;;;276.20;;
8407;SDS011;4241;48.452;9.216;2022-09-02T09:05:25;494.60;;;275.77;;
8407;SDS011;4241;48.452;9.216;2022-09-02T09:08:06;496.00;;;280.27;;
8407;SDS011;4241;48.452;9.216;2022-09-02T09:10:44;495.67;;;282.90;;
8407;SDS011;4241;48.452;9.216;2022-09-02T09:13:28;495.77;;;283.77;;
8407;SDS011;4241;48.452;9.216;2022-09-02T09:16:13;494.27;;;278.67;;
8407;SDS011;4241;48.452;9.216;2022-09-02T09:18:46;498.10;;;288.50;;
8407;SDS011;4241;48.452;9.216;2022-09-02T09:21:18;497.00;;;291.67;;
8407;SDS011;4241;48.452;9.216;2022-09-02T09:23:45;498.53;;;292.13;;
8407;SDS011;4241;48.452;9.216;2022-09-02T09:26:16;499.47;;;297.30;;
8407;SDS011;4241;48.452;9.216;2022-09-02T09:28:48;498.10;;;292.60;;
8407;SDS011;4241;48.452;9.216;2022-09-02T09:31:16;497.07;;;288.60;;
8407;SDS011;4241;48.452;9.216;2022-09-02T09:33:55;497.23;;;293.73;;
8407;SDS011;4241;48.452;9.216;2022-09-02T09:39:19;499.83;;;299.30;;
8407;SDS011;4241;48.452;9.216;2022-09-02T09:41:52;499.63;;;300.47;;
8407;SDS011;4241;48.452;9.216;2022-09-02T09:44:33;501.10;;;303.33;;
8407;SDS011;4241;48.452;9.216;2022-09-02T09:47:08;501.53;;;305.57;;
8407;SDS011;4241;48.452;9.216;2022-09-02T09:49:38;499.60;;;299.03;;
8407;SDS011;4241;48.452;9.216;2022-09-02T09:52:05;501.83;;;303.67;;
8407;SDS011;4241;48.452;9.216;2022-09-02T09:54:32;500.30;;;305.10;;
8407;SDS011;4241;48.452;9.216;2022-09-02T09:57:13;499.93;;;303.00;;
8407;SDS011;4241;48.452;9.216;2022-09-02T09:59:42;502.67;;;309.07;;
8407;SDS011;4241;48.452;9.216;2022-09-02T10:02:18;500.53;;;302.53;;
8407;SDS011;4241;48.452;9.216;2022-09-02T10:04:46;501.77;;;306.67;;
8407;SDS011;4241;48.452;9.216;2022-09-02T10:07:13;504.57;;;311.20;;
8407;SDS011;4241;48.452;9.216;2022-09-02T10:10:06;500.87;;;308.63;;
8407;SDS011;4241;48.452;9.216;2022-09-02T10:12:41;500.73;;;309.17;;
8407;SDS011;4241;48.452;9.216;2022-09-02T10:15:10;504.03;;;313.37;;
8407;SDS011;4241;48.452;9.216;2022-09-02T10:17:38;501.57;;;310.80;;
8407;SDS011;4241;48.452;9.216;2022-09-02T10:20:13;502.97;;;309.20;;
8407;SDS011;4241;48.452;9.216;2022-09-02T10:22:53;499.27;;;310.00;;
8407;SDS011;4241;48.452;9.216;2022-09-02T10:25:31;501.27;;;311.43;;
8407;SDS011;4241;48.452;9.216;2022-09-02T10:28:07;501.10;;;310.67;;
8407;SDS011;4241;48.452;9.216;2022-09-02T10:30:42;501.03;;;312.57;;
8407;SDS011;4241;48.452;9.216;2022-09-02T10:33:18;500.97;;;311.07;;
8407;SDS011;4241;48.452;9.216;2022-09-02T10:35:52;502.63;;;314.50;;
8407;SDS011;4241;48.452;9.216;2022-09-02T10:38:30;510.20;;;326.00;;
8407;SDS011;4241;48.452;9.216;2022-09-02T10:41:04;503.00;;;317.13;;
8407;SDS011;4241;48.452;9.216;2022-09-02T10:43:50;502.20;;;317.37;;
8407;SDS011;4241;48.452;9.216;2022-09-02T10:46:39;503.53;;;322.13;;
8407;SDS011;4241;48.452;9.216;2022-09-02T10:49:13;504.00;;;323.37;;
8407;SDS011;4241;48.452;9.216;2022-09-02T10:51:51;504.57;;;327.57;;
8407;SDS011;4241;48.452;9.216;2022-09-02T10:54:28;502.83;;;325.27;;
8407;SDS011;4241;48.452;9.216;2022-09-02T10:57:05;504.97;;;327.00;;
8407;SDS011;4241;48.452;9.216;2022-09-02T10:59:39;503.63;;;328.27;;
8407;SDS011;4241;48.452;9.216;2022-09-02T11:02:11;504.27;;;329.97;;
8407;SDS011;4241;48.452;9.216;2022-09-02T11:04:42;503.53;;;325.07;;
8407;SDS011;4241;48.452;9.216;2022-09-02T11:07:14;510.10;;;333.13;;
8407;SDS011;4241;48.452;9.216;2022-09-02T11:09:45;504.87;;;330.47;;
8407;SDS011;4241;48.452;9.216;2022-09-02T11:12:16;505.10;;;329.53;;
8407;SDS011;4241;48.452;9.216;2022-09-02T11:14:52;504.60;;;330.57;;
8407;SDS011;4241;48.452;9.216;2022-09-02T11:17:29;505.07;;;331.63;;
8407;SDS011;4241;48.452;9.216;2022-09-02T11:20:04;505.60;;;332.90;;
8407;SDS011;4241;48.452;9.216;2022-09-02T11:22:39;506.30;;;332.43;;
8407;SDS011;4241;48.452;9.216;2022-09-02T11:25:16;506.57;;;336.47;;
8407;SDS011;4241;48.452;9.216;2022-09-02T11:27:48;505.93;;;334.93;;
8407;SDS011;4241;48.452;9.216;2022-09-02T11:30:25;506.17;;;336.63;;
8407;SDS011;4241;48.452;9.216;2022-09-02T11:33:01;507.87;;;342.97;;
8407;SDS011;4241;48.452;9.216;2022-09-02T11:35:37;505.93;;;337.20;;
8407;SDS011;4241;48.452;9.216;2022-09-02T11:38:08;507.37;;;341.00;;
8407;SDS011;4241;48.452;9.216;2022-09-02T11:40:59;506.97;;;341.53;;
8407;SDS011;4241;48.452;9.216;2022-09-02T11:43:48;507.37;;;343.83;;
8407;SDS011;4241;48.452;9.216;2022-09-02T11:46:30;507.17;;;345.73;;
8407;SDS011;4241;48.452;9.216;2022-09-02T11:52:17;505.50;;;339.93;;
8407;SDS011;4241;48.452;9.216;2022-09-02T11:54:54;508.03;;;351.53;;
8407;SDS011;4241;48.452;9.216;2022-09-02T11:57:33;508.57;;;353.87;;
8407;SDS011;4241;48.452;9.216;2022-09-02T12:00:25;509.80;;;351.67;;
8407;SDS011;4241;48.452;9.216;2022-09-02T12:03:00;506.37;;;344.17;;
8407;SDS011;4241;48.452;9.216;2022-09-02T12:05:45;508.20;;;351.37;;
8407;SDS011;4241;48.452;9.216;2022-09-02T12:17:35;507.00;;;343.07;;
8407;SDS011;4241;48.452;9.216;2022-09-02T12:29:46;505.47;;;338.37;;
8407;SDS011;4241;48.452;9.216;2022-09-02T12:35:28;504.57;;;337.53;;
8407;SDS011;4241;48.452;9.216;2022-09-02T12:38:16;504.60;;;338.93;;
8407;SDS011;4241;48.452;9.216;2022-09-02T12:40:52;505.33;;;337.87;;
8407;SDS011;4241;48.452;9.216;2022-09-02T12:43:30;506.03;;;340.07;;
8407;SDS011;4241;48.452;9.216;2022-09-02T12:46:05;505.57;;;343.40;;
8407;SDS011;4241;48.452;9.216;2022-09-02T12:48:40;506.27;;;341.17;;
8407;SDS011;4241;48.452;9.216;2022-09-02T12:51:18;506.50;;;343.97;;
8407;SDS011;4241;48.452;9.216;2022-09-02T12:54:21;505.30;;;339.33;;
8407;SDS011;4241;48.452;9.216;2022-09-02T12:56:55;505.93;;;340.07;;
8407;SDS011;4241;48.452;9.216;2022-09-02T12:59:24;503.93;;;333.10;;
8407;SDS011;4241;48.452;9.216;2022-09-02T13:01:57;503.27;;;332.43;;
8407;SDS011;4241;48.452;9.216;2022-09-02T13:04:32;503.70;;;332.80;;
8407;SDS011;4241;48.452;9.216;2022-09-02T13:16:32;502.23;;;326.10;;
8407;SDS011;4241;48.452;9.216;2022-09-02T13:19:09;504.70;;;326.33;;
8407;SDS011;4241;48.452;9.216;2022-09-02T13:22:01;501.93;;;322.77;;
8407;SDS011;4241;48.452;9.216;2022-09-02T13:24:55;502.20;;;321.53;;
8407;SDS011;4241;48.452;9.216;2022-09-02T13:27:52;501.87;;;316.10;;
8407;SDS011;4241;48.452;9.216;2022-09-02T13:30:55;505.53;;;324.50;;
8407;SDS011;4241;48.452;9.216;2022-09-02T13:33:36;502.20;;;318.17;;
8407;SDS011;4241;48.452;9.216;2022-09-02T13:36:03;502.93;;;321.50;;
8407;SDS011;4241;48.452;9.216;2022-09-02T13:38:31;507.20;;;321.10;;
8407;SDS011;4241;48.452;9.216;2022-09-02T13:40:59;504.77;;;314.50;;
8407;SDS011;4241;48.452;9.216;2022-09-02T13:43:26;501.77;;;315.83;;
8407;SDS011;4241;48.452;9.216;2022-09-02T13:45:53;501.33;;;314.13;;
8407;SDS011;4241;48.452;9.216;2022-09-02T13:48:25;507.03;;;318.53;;
8407;SDS011;4241;48.452;9.216;2022-09-02T13:50:54;501.00;;;310.53;;
8407;SDS011;4241;48.452;9.216;2022-09-02T13:53:23;503.67;;;314.20;;
8407;SDS011;4241;48.452;9.216;2022-09-02T13:55:54;502.00;;;310.40;;
8407;SDS011;4241;48.452;9.216;2022-09-02T13:58:30;506.77;;;313.57;;
8407;SDS011;4241;48.452;9.216;2022-09-02T14:03:44;498.90;;;304.17;;
8407;SDS011;4241;48.452;9.216;2022-09-02T14:06:12;502.17;;;308.20;;
8407;SDS011;4241;48.452;9.216;2022-09-02T14:08:40;501.30;;;301.87;;
8407;SDS011;4241;48.452;9.216;2022-09-02T14:11:07;501.40;;;305.07;;
8407;SDS011;4241;48.452;9.216;2022-09-02T14:13:40;502.33;;;308.47;;
8407;SDS011;4241;48.452;9.216;2022-09-02T14:19:07;499.80;;;301.57;;
8407;SDS011;4241;48.452;9.216;2022-09-02T14:21:43;500.27;;;307.83;;
8407;SDS011;4241;48.452;9.216;2022-09-02T14:24:11;501.73;;;307.20;;
8407;SDS011;4241;48.452;9.216;2022-09-02T14:26:40;500.37;;;303.23;;
8407;SDS011;4241;48.452;9.216;2022-09-02T14:29:12;501.13;;;307.07;;
8407;SDS011;4241;48.452;9.216;2022-09-02T14:31:40;501.73;;;311.10;;
8407;SDS011;4241;48.452;9.216;2022-09-02T14:37:00;499.47;;;298.93;;
8407;SDS011;4241;48.452;9.216;2022-09-02T14:39:49;497.47;;;296.63;;
8407;SDS011;4241;48.452;9.216;2022-09-02T14:42:30;498.40;;;296.13;;
8407;SDS011;4241;48.452;9.216;2022-09-02T14:44:58;501.33;;;304.27;;
8407;SDS011;4241;48.452;9.216;2022-09-02T14:47:27;499.87;;;298.27;;
8407;SDS011;4241;48.452;9.216;2022-09-02T14:49:54;501.30;;;302.73;;
8407;SDS011;4241;48.452;9.216;2022-09-02T14:52:22;498.47;;;297.77;;
8407;SDS011;4241;48.452;9.216;2022-09-02T14:54:53;498.67;;;297.03;;
8407;SDS011;4241;48.452;9.216;2022-09-02T14:57:22;499.80;;;301.80;;
8407;SDS011;4241;48.452;9.216;2022-09-02T14:59:52;497.90;;;299.07;;
8407;SDS011;4241;48.452;9.216;2022-09-02T15:02:22;503.90;;;304.70;;
8407;SDS011;4241;48.452;9.216;2022-09-02T15:04:56;500.27;;;299.57;;
8407;SDS011;4241;48.452;9.216;2022-09-02T15:07:25;517.03;;;317.63;;
8407;SDS011;4241;48.452;9.216;2022-09-02T15:09:52;503.23;;;312.73;;
8407;SDS011;4241;48.452;9.216;2022-09-02T15:12:20;504.30;;;313.50;;
8407;SDS011;4241;48.452;9.216;2022-09-02T15:14:49;506.37;;;314.33;;
8407;SDS011;4241;48.452;9.216;2022-09-02T15:17:16;502.73;;;309.40;;
8407;SDS011;4241;48.452;9.216;2022-09-02T15:19:45;500.83;;;304.47;;
8407;SDS011;4241;48.452;9.216;2022-09-02T15:22:12;503.23;;;311.60;;
8407;SDS011;4241;48.452;9.216;2022-09-02T15:24:41;500.70;;;307.10;;
8407;SDS011;4241;48.452;9.216;2022-09-02T15:27:08;502.97;;;306.77;;
8407;SDS011;4241;48.452;9.216;2022-09-02T15:29:35;503.13;;;309.13;;
8407;SDS011;4241;48.452;9.216;2022-09-02T15:32:02;502.60;;;308.63;;
8407;SDS011;4241;48.452;9.216;2022-09-02T15:34:29;503.00;;;311.87;;